aviador You're here:

K2W6 Decoded Metar

CAPT DUKE RGNL in MD, USA
Report Time2018-01-16 19:17:00
UTC Time2018-01-16 19:33:04
Flight Rules unknown UNKNOWN
WindCalm
VisibilityN/A
Phenomena:N/A
Clouds:N/A
Expected CloudBase > 2,000 ft AGL from Temp-Dew spread
CeilingNone
Temp05°C (ISA -10)
Dew Point00°C (70% RH)
AAT3.0°C
QNH1029 hPa
Density Alt-1,486 ft
Elevation144 ft
Report Wrong Elevation
Raw Report
METAR K2W6 161917Z AUTO 00000KT CLR 05/00 A3039 RMK AO1=

Extra information for K2W6:More info

Metar Taf Metar & Taf Last 4 Metars F.Rules Stats Wind Profile Meteogram Temp Stats Airport Information Weather charts Add Link Nearby VenuesMetar ALERT Operation Metar Decoded Social comments

AIRNAV info for K2W6